sensor_id;sensor_type;location;lat;lon;timestamp;temperature;humidity
15554;DHT22;7878;44.632;10.942;2023-04-03T00:00:53;13.00;80.90
15554;DHT22;7878;44.632;10.942;2023-04-03T00:03:20;13.00;80.80
15554;DHT22;7878;44.632;10.942;2023-04-03T00:05:46;12.90;81.20
15554;DHT22;7878;44.632;10.942;2023-04-03T00:08:12;13.00;81.10
15554;DHT22;7878;44.632;10.942;2023-04-03T00:10:38;13.00;81.20
15554;DHT22;7878;44.632;10.942;2023-04-03T00:13:07;12.90;80.60
15554;DHT22;7878;44.632;10.942;2023-04-03T00:15:33;12.90;81.10
15554;DHT22;7878;44.632;10.942;2023-04-03T00:18:00;12.90;81.20
15554;DHT22;7878;44.632;10.942;2023-04-03T00:20:25;12.90;81.40
15554;DHT22;7878;44.632;10.942;2023-04-03T00:22:52;12.90;81.40
15554;DHT22;7878;44.632;10.942;2023-04-03T00:25:18;12.90;81.30
15554;DHT22;7878;44.632;10.942;2023-04-03T00:27:44;12.80;81.40
15554;DHT22;7878;44.632;10.942;2023-04-03T00:30:14;12.80;81.90
15554;DHT22;7878;44.632;10.942;2023-04-03T00:32:40;12.80;82.60
15554;DHT22;7878;44.632;10.942;2023-04-03T00:35:07;12.80;82.50
15554;DHT22;7878;44.632;10.942;2023-04-03T00:37:32;12.80;82.30
15554;DHT22;7878;44.632;10.942;2023-04-03T00:39:58;12.80;82.20
15554;DHT22;7878;44.632;10.942;2023-04-03T00:42:24;12.80;82.10
15554;DHT22;7878;44.632;10.942;2023-04-03T00:47:21;12.80;81.30
15554;DHT22;7878;44.632;10.942;2023-04-03T00:49:48;12.80;81.30
15554;DHT22;7878;44.632;10.942;2023-04-03T00:52:17;12.90;81.70
15554;DHT22;7878;44.632;10.942;2023-04-03T00:54:46;12.90;81.50
15554;DHT22;7878;44.632;10.942;2023-04-03T00:57:14;12.80;81.90
15554;DHT22;7878;44.632;10.942;2023-04-03T00:59:48;12.80;81.90
15554;DHT22;7878;44.632;10.942;2023-04-03T01:02:16;12.80;82.30
15554;DHT22;7878;44.632;10.942;2023-04-03T01:04:43;12.80;82.10
15554;DHT22;7878;44.632;10.942;2023-04-03T01:07:31;12.80;82.50
15554;DHT22;7878;44.632;10.942;2023-04-03T01:10:00;12.80;82.80
15554;DHT22;7878;44.632;10.942;2023-04-03T01:12:33;12.80;82.90
15554;DHT22;7878;44.632;10.942;2023-04-03T01:17:38;12.80;82.60
15554;DHT22;7878;44.632;10.942;2023-04-03T01:25:37;12.90;83.20
15554;DHT22;7878;44.632;10.942;2023-04-03T01:28:04;12.90;82.90
15554;DHT22;7878;44.632;10.942;2023-04-03T01:30:37;12.90;82.70
15554;DHT22;7878;44.632;10.942;2023-04-03T01:33:05;12.90;83.00
15554;DHT22;7878;44.632;10.942;2023-04-03T01:35:30;12.80;82.90
15554;DHT22;7878;44.632;10.942;2023-04-03T01:37:56;12.80;82.80
15554;DHT22;7878;44.632;10.942;2023-04-03T01:40:22;12.80;82.80
15554;DHT22;7878;44.632;10.942;2023-04-03T01:42:47;12.80;82.40
15554;DHT22;7878;44.632;10.942;2023-04-03T01:45:13;12.80;82.70
15554;DHT22;7878;44.632;10.942;2023-04-03T01:47:39;12.80;83.10
15554;DHT22;7878;44.632;10.942;2023-04-03T01:50:05;12.70;82.90
15554;DHT22;7878;44.632;10.942;2023-04-03T01:52:30;12.70;83.20
15554;DHT22;7878;44.632;10.942;2023-04-03T01:54:56;12.70;83.20
15554;DHT22;7878;44.632;10.942;2023-04-03T01:57:22;12.80;82.60
15554;DHT22;7878;44.632;10.942;2023-04-03T01:59:47;12.80;82.30
15554;DHT22;7878;44.632;10.942;2023-04-03T02:02:13;12.80;81.90
15554;DHT22;7878;44.632;10.942;2023-04-03T02:04:40;12.80;82.30
15554;DHT22;7878;44.632;10.942;2023-04-03T02:07:06;12.80;81.30
15554;DHT22;7878;44.632;10.942;2023-04-03T02:09:31;12.80;81.10
15554;DHT22;7878;44.632;10.942;2023-04-03T02:11:57;12.80;81.30
15554;DHT22;7878;44.632;10.942;2023-04-03T02:14:23;12.80;81.60
15554;DHT22;7878;44.632;10.942;2023-04-03T02:16:49;12.80;81.10
15554;DHT22;7878;44.632;10.942;2023-04-03T02:19:15;12.70;81.00
15554;DHT22;7878;44.632;10.942;2023-04-03T02:21:41;12.70;81.20
15554;DHT22;7878;44.632;10.942;2023-04-03T02:24:07;12.70;81.20
15554;DHT22;7878;44.632;10.942;2023-04-03T02:26:33;12.80;81.00
15554;DHT22;7878;44.632;10.942;2023-04-03T02:28:58;12.80;81.30
15554;DHT22;7878;44.632;10.942;2023-04-03T02:31:24;12.70;80.90
15554;DHT22;7878;44.632;10.942;2023-04-03T02:33:50;12.70;80.90
15554;DHT22;7878;44.632;10.942;2023-04-03T02:36:16;12.60;81.00
15554;DHT22;7878;44.632;10.942;2023-04-03T02:38:42;12.50;81.50
15554;DHT22;7878;44.632;10.942;2023-04-03T02:41:10;12.50;81.80
15554;DHT22;7878;44.632;10.942;2023-04-03T02:43:37;12.50;81.60
15554;DHT22;7878;44.632;10.942;2023-04-03T02:46:02;12.50;82.10
15554;DHT22;7878;44.632;10.942;2023-04-03T02:48:29;12.50;81.40
15554;DHT22;7878;44.632;10.942;2023-04-03T02:50:55;12.50;81.60
15554;DHT22;7878;44.632;10.942;2023-04-03T02:53:21;12.50;81.80
15554;DHT22;7878;44.632;10.942;2023-04-03T02:55:47;12.60;82.50
15554;DHT22;7878;44.632;10.942;2023-04-03T02:58:12;12.50;81.60
15554;DHT22;7878;44.632;10.942;2023-04-03T03:00:38;12.50;81.90
15554;DHT22;7878;44.632;10.942;2023-04-03T03:03:04;12.50;81.70
15554;DHT22;7878;44.632;10.942;2023-04-03T03:05:30;12.60;81.80
15554;DHT22;7878;44.632;10.942;2023-04-03T03:07:56;12.50;81.70
15554;DHT22;7878;44.632;10.942;2023-04-03T03:10:22;12.50;81.60
15554;DHT22;7878;44.632;10.942;2023-04-03T03:12:48;12.50;82.10
15554;DHT22;7878;44.632;10.942;2023-04-03T03:15:14;12.50;82.30
15554;DHT22;7878;44.632;10.942;2023-04-03T03:17:41;12.50;82.00
15554;DHT22;7878;44.632;10.942;2023-04-03T03:20:07;12.40;82.00
15554;DHT22;7878;44.632;10.942;2023-04-03T03:22:34;12.40;82.10
15554;DHT22;7878;44.632;10.942;2023-04-03T03:25:00;12.40;82.70
15554;DHT22;7878;44.632;10.942;2023-04-03T03:27:26;12.40;82.10
15554;DHT22;7878;44.632;10.942;2023-04-03T03:29:52;12.40;82.40
15554;DHT22;7878;44.632;10.942;2023-04-03T03:32:18;12.30;82.60
15554;DHT22;7878;44.632;10.942;2023-04-03T03:34:43;12.40;82.90
15554;DHT22;7878;44.632;10.942;2023-04-03T03:37:09;12.30;83.20
15554;DHT22;7878;44.632;10.942;2023-04-03T03:39:35;12.40;83.20
15554;DHT22;7878;44.632;10.942;2023-04-03T03:42:01;12.40;83.00
15554;DHT22;7878;44.632;10.942;2023-04-03T03:44:26;12.50;83.20
15554;DHT22;7878;44.632;10.942;2023-04-03T03:46:54;12.50;83.00
15554;DHT22;7878;44.632;10.942;2023-04-03T03:49:20;12.50;82.80
15554;DHT22;7878;44.632;10.942;2023-04-03T03:51:46;12.50;82.90
15554;DHT22;7878;44.632;10.942;2023-04-03T03:54:12;12.40;82.70
15554;DHT22;7878;44.632;10.942;2023-04-03T03:56:38;12.40;82.70
15554;DHT22;7878;44.632;10.942;2023-04-03T03:59:05;12.40;82.90
15554;DHT22;7878;44.632;10.942;2023-04-03T04:01:31;12.40;82.70
15554;DHT22;7878;44.632;10.942;2023-04-03T04:03:56;12.40;83.10
15554;DHT22;7878;44.632;10.942;2023-04-03T04:06:22;12.30;82.90
15554;DHT22;7878;44.632;10.942;2023-04-03T04:08:48;12.30;83.10
15554;DHT22;7878;44.632;10.942;2023-04-03T04:11:13;12.30;82.80
15554;DHT22;7878;44.632;10.942;2023-04-03T04:13:39;12.30;82.60
15554;DHT22;7878;44.632;10.942;2023-04-03T04:16:06;12.30;82.80
15554;DHT22;7878;44.632;10.942;2023-04-03T04:18:33;12.30;82.90
15554;DHT22;7878;44.632;10.942;2023-04-03T04:20:59;12.30;82.80
15554;DHT22;7878;44.632;10.942;2023-04-03T04:23:24;12.30;82.70
15554;DHT22;7878;44.632;10.942;2023-04-03T04:25:50;12.30;82.50
15554;DHT22;7878;44.632;10.942;2023-04-03T04:28:16;12.20;82.50
15554;DHT22;7878;44.632;10.942;2023-04-03T04:30:42;12.30;82.40
15554;DHT22;7878;44.632;10.942;2023-04-03T04:33:08;12.30;82.40
15554;DHT22;7878;44.632;10.942;2023-04-03T04:35:34;12.30;82.70
15554;DHT22;7878;44.632;10.942;2023-04-03T04:38:00;12.30;82.80
15554;DHT22;7878;44.632;10.942;2023-04-03T04:40:26;12.30;82.80
15554;DHT22;7878;44.632;10.942;2023-04-03T04:42:52;12.30;82.90
15554;DHT22;7878;44.632;10.942;2023-04-03T04:45:17;12.30;82.60
15554;DHT22;7878;44.632;10.942;2023-04-03T04:47:43;12.30;82.80
15554;DHT22;7878;44.632;10.942;2023-04-03T04:50:10;12.40;82.90
15554;DHT22;7878;44.632;10.942;2023-04-03T04:52:36;12.40;82.70
15554;DHT22;7878;44.632;10.942;2023-04-03T04:55:01;12.40;82.70
15554;DHT22;7878;44.632;10.942;2023-04-03T04:57:27;12.40;82.70
15554;DHT22;7878;44.632;10.942;2023-04-03T04:59:53;12.30;83.00
15554;DHT22;7878;44.632;10.942;2023-04-03T05:02:18;12.30;83.10
15554;DHT22;7878;44.632;10.942;2023-04-03T05:04:44;12.30;83.30
15554;DHT22;7878;44.632;10.942;2023-04-03T05:07:10;12.30;83.50
15554;DHT22;7878;44.632;10.942;2023-04-03T05:09:36;12.20;84.10
15554;DHT22;7878;44.632;10.942;2023-04-03T05:12:01;12.10;84.10
15554;DHT22;7878;44.632;10.942;2023-04-03T05:14:28;12.00;84.00
15554;DHT22;7878;44.632;10.942;2023-04-03T05:16:54;12.00;84.60
15554;DHT22;7878;44.632;10.942;2023-04-03T05:19:23;12.00;84.20
15554;DHT22;7878;44.632;10.942;2023-04-03T05:21:48;11.90;84.40
15554;DHT22;7878;44.632;10.942;2023-04-03T05:24:15;11.90;84.40
15554;DHT22;7878;44.632;10.942;2023-04-03T05:26:42;11.90;84.20
15554;DHT22;7878;44.632;10.942;2023-04-03T05:29:08;11.90;84.20
15554;DHT22;7878;44.632;10.942;2023-04-03T05:31:33;11.80;84.60
15554;DHT22;7878;44.632;10.942;2023-04-03T05:33:59;11.80;84.50
15554;DHT22;7878;44.632;10.942;2023-04-03T05:36:25;11.80;84.70
15554;DHT22;7878;44.632;10.942;2023-04-03T05:38:51;11.80;84.50
15554;DHT22;7878;44.632;10.942;2023-04-03T05:41:17;11.70;84.20
15554;DHT22;7878;44.632;10.942;2023-04-03T05:43:43;11.80;85.20
15554;DHT22;7878;44.632;10.942;2023-04-03T05:46:11;11.80;84.70
15554;DHT22;7878;44.632;10.942;2023-04-03T05:48:37;11.80;84.80
15554;DHT22;7878;44.632;10.942;2023-04-03T05:51:03;11.80;85.20
15554;DHT22;7878;44.632;10.942;2023-04-03T05:53:32;11.80;85.10
15554;DHT22;7878;44.632;10.942;2023-04-03T05:55:58;11.80;85.10
15554;DHT22;7878;44.632;10.942;2023-04-03T05:58:24;11.90;85.20
15554;DHT22;7878;44.632;10.942;2023-04-03T06:00:50;11.90;85.00
15554;DHT22;7878;44.632;10.942;2023-04-03T06:03:15;12.00;84.90
15554;DHT22;7878;44.632;10.942;2023-04-03T06:05:42;12.00;84.60
15554;DHT22;7878;44.632;10.942;2023-04-03T06:08:08;12.00;84.30
15554;DHT22;7878;44.632;10.942;2023-04-03T06:10:34;12.10;84.30
15554;DHT22;7878;44.632;10.942;2023-04-03T06:13:01;12.10;84.70
15554;DHT22;7878;44.632;10.942;2023-04-03T06:15:26;12.10;84.20
15554;DHT22;7878;44.632;10.942;2023-04-03T06:17:52;12.20;84.30
15554;DHT22;7878;44.632;10.942;2023-04-03T06:20:18;12.20;83.90
15554;DHT22;7878;44.632;10.942;2023-04-03T06:22:44;12.30;84.30
15554;DHT22;7878;44.632;10.942;2023-04-03T06:25:09;12.30;84.30
15554;DHT22;7878;44.632;10.942;2023-04-03T06:27:35;12.20;84.20
15554;DHT22;7878;44.632;10.942;2023-04-03T06:30:01;12.20;84.00
15554;DHT22;7878;44.632;10.942;2023-04-03T06:32:27;12.20;84.00
15554;DHT22;7878;44.632;10.942;2023-04-03T06:34:53;12.30;83.90
15554;DHT22;7878;44.632;10.942;2023-04-03T06:37:21;12.30;84.00
15554;DHT22;7878;44.632;10.942;2023-04-03T06:39:47;12.40;83.70
15554;DHT22;7878;44.632;10.942;2023-04-03T06:42:13;12.50;84.00
15554;DHT22;7878;44.632;10.942;2023-04-03T06:44:39;12.50;83.70
15554;DHT22;7878;44.632;10.942;2023-04-03T06:47:05;12.60;83.60
15554;DHT22;7878;44.632;10.942;2023-04-03T06:49:31;12.60;83.80
15554;DHT22;7878;44.632;10.942;2023-04-03T06:51:57;12.70;83.20
15554;DHT22;7878;44.632;10.942;2023-04-03T06:54:23;12.70;83.40
15554;DHT22;7878;44.632;10.942;2023-04-03T06:56:50;12.80;83.10
15554;DHT22;7878;44.632;10.942;2023-04-03T06:59:16;13.10;83.60
15554;DHT22;7878;44.632;10.942;2023-04-03T07:01:42;13.60;83.00
15554;DHT22;7878;44.632;10.942;2023-04-03T07:04:08;14.20;83.00
15554;DHT22;7878;44.632;10.942;2023-04-03T07:06:34;15.00;82.20
15554;DHT22;7878;44.632;10.942;2023-04-03T07:09:01;15.90;80.50
15554;DHT22;7878;44.632;10.942;2023-04-03T07:11:26;16.60;79.40
15554;DHT22;7878;44.632;10.942;2023-04-03T07:13:53;17.20;79.40
15554;DHT22;7878;44.632;10.942;2023-04-03T07:16:19;17.70;78.80
15554;DHT22;7878;44.632;10.942;2023-04-03T07:18:46;18.00;78.00
15554;DHT22;7878;44.632;10.942;2023-04-03T07:21:12;17.80;77.90
15554;DHT22;7878;44.632;10.942;2023-04-03T07:23:38;17.60;78.10
15554;DHT22;7878;44.632;10.942;2023-04-03T07:26:05;17.40;78.50
15554;DHT22;7878;44.632;10.942;2023-04-03T07:28:32;17.10;78.90
15554;DHT22;7878;44.632;10.942;2023-04-03T07:31:06;17.00;79.40
15554;DHT22;7878;44.632;10.942;2023-04-03T07:33:37;17.00;79.50
15554;DHT22;7878;44.632;10.942;2023-04-03T07:36:04;17.00;79.60
15554;DHT22;7878;44.632;10.942;2023-04-03T07:38:30;16.80;79.30
15554;DHT22;7878;44.632;10.942;2023-04-03T07:40:56;16.70;79.60
15554;DHT22;7878;44.632;10.942;2023-04-03T07:43:22;16.60;80.00
15554;DHT22;7878;44.632;10.942;2023-04-03T07:45:50;16.60;80.30
15554;DHT22;7878;44.632;10.942;2023-04-03T07:48:17;16.50;80.20
15554;DHT22;7878;44.632;10.942;2023-04-03T07:50:43;16.50;80.30
15554;DHT22;7878;44.632;10.942;2023-04-03T07:53:09;16.60;80.40
15554;DHT22;7878;44.632;10.942;2023-04-03T07:55:35;16.70;80.10
15554;DHT22;7878;44.632;10.942;2023-04-03T07:58:18;16.90;80.10
15554;DHT22;7878;44.632;10.942;2023-04-03T08:00:44;16.90;80.30
15554;DHT22;7878;44.632;10.942;2023-04-03T08:03:10;17.00;80.20
15554;DHT22;7878;44.632;10.942;2023-04-03T08:05:41;17.40;80.10
15554;DHT22;7878;44.632;10.942;2023-04-03T08:08:08;18.10;79.20
15554;DHT22;7878;44.632;10.942;2023-04-03T08:10:34;18.30;78.10
15554;DHT22;7878;44.632;10.942;2023-04-03T08:13:01;18.40;78.50
15554;DHT22;7878;44.632;10.942;2023-04-03T08:15:27;18.60;77.90
15554;DHT22;7878;44.632;10.942;2023-04-03T08:17:53;18.80;78.00
15554;DHT22;7878;44.632;10.942;2023-04-03T08:20:19;19.00;77.70
15554;DHT22;7878;44.632;10.942;2023-04-03T08:22:45;19.30;78.10
15554;DHT22;7878;44.632;10.942;2023-04-03T08:25:11;19.70;78.30
15554;DHT22;7878;44.632;10.942;2023-04-03T08:27:37;20.50;77.80
15554;DHT22;7878;44.632;10.942;2023-04-03T08:30:03;20.80;77.40
15554;DHT22;7878;44.632;10.942;2023-04-03T08:32:29;21.20;76.10
15554;DHT22;7878;44.632;10.942;2023-04-03T08:34:55;21.60;75.10
15554;DHT22;7878;44.632;10.942;2023-04-03T08:37:21;21.50;74.10
15554;DHT22;7878;44.632;10.942;2023-04-03T08:39:47;21.50;75.50
15554;DHT22;7878;44.632;10.942;2023-04-03T08:50:20;21.20;74.20
15554;DHT22;7878;44.632;10.942;2023-04-03T08:52:51;21.10;73.70
15554;DHT22;7878;44.632;10.942;2023-04-03T08:55:24;21.10;76.20
15554;DHT22;7878;44.632;10.942;2023-04-03T08:57:58;21.70;75.30
15554;DHT22;7878;44.632;10.942;2023-04-03T09:00:28;22.70;75.00
15554;DHT22;7878;44.632;10.942;2023-04-03T09:02:56;23.70;74.20
15554;DHT22;7878;44.632;10.942;2023-04-03T09:08:21;23.10;69.10
15554;DHT22;7878;44.632;10.942;2023-04-03T09:10:49;22.50;70.60
15554;DHT22;7878;44.632;10.942;2023-04-03T09:13:32;21.80;72.40
15554;DHT22;7878;44.632;10.942;2023-04-03T09:16:10;21.20;72.50
15554;DHT22;7878;44.632;10.942;2023-04-03T09:18:45;20.70;74.80
15554;DHT22;7878;44.632;10.942;2023-04-03T09:23:53;20.30;74.90
15554;DHT22;7878;44.632;10.942;2023-04-03T09:26:33;20.00;75.00
15554;DHT22;7878;44.632;10.942;2023-04-03T09:29:05;20.10;75.50
15554;DHT22;7878;44.632;10.942;2023-04-03T09:31:38;20.40;75.90
15554;DHT22;7878;44.632;10.942;2023-04-03T09:34:21;20.40;75.60
15554;DHT22;7878;44.632;10.942;2023-04-03T09:36:50;20.30;74.50
15554;DHT22;7878;44.632;10.942;2023-04-03T09:39:22;20.00;74.00
15554;DHT22;7878;44.632;10.942;2023-04-03T09:41:58;19.80;74.80
15554;DHT22;7878;44.632;10.942;2023-04-03T09:44:33;19.70;74.90
15554;DHT22;7878;44.632;10.942;2023-04-03T09:46:59;19.80;74.70
15554;DHT22;7878;44.632;10.942;2023-04-03T09:49:42;19.80;74.10
15554;DHT22;7878;44.632;10.942;2023-04-03T09:52:24;19.60;74.60
15554;DHT22;7878;44.632;10.942;2023-04-03T09:54:50;19.30;75.50
15554;DHT22;7878;44.632;10.942;2023-04-03T09:57:16;19.20;76.00
15554;DHT22;7878;44.632;10.942;2023-04-03T10:00:00;19.20;76.40
15554;DHT22;7878;44.632;10.942;2023-04-03T10:02:37;19.20;76.20
15554;DHT22;7878;44.632;10.942;2023-04-03T10:05:37;19.40;76.80
15554;DHT22;7878;44.632;10.942;2023-04-03T10:08:10;19.80;76.70
15554;DHT22;7878;44.632;10.942;2023-04-03T10:10:37;20.00;75.50
15554;DHT22;7878;44.632;10.942;2023-04-03T10:13:17;20.10;75.60
15554;DHT22;7878;44.632;10.942;2023-04-03T10:15:48;20.30;75.70
15554;DHT22;7878;44.632;10.942;2023-04-03T10:21:35;20.20;75.40
15554;DHT22;7878;44.632;10.942;2023-04-03T10:24:48;20.20;75.20
15554;DHT22;7878;44.632;10.942;2023-04-03T10:27:48;20.30;74.30
15554;DHT22;7878;44.632;10.942;2023-04-03T10:41:04;21.30;71.20
15554;DHT22;7878;44.632;10.942;2023-04-03T10:46:49;21.50;70.30
15554;DHT22;7878;44.632;10.942;2023-04-03T10:51:51;21.90;71.10
15554;DHT22;7878;44.632;10.942;2023-04-03T10:54:30;22.00;70.50
15554;DHT22;7878;44.632;10.942;2023-04-03T10:57:03;22.50;71.10
15554;DHT22;7878;44.632;10.942;2023-04-03T10:59:40;22.80;70.00
15554;DHT22;7878;44.632;10.942;2023-04-03T11:04:48;21.40;70.40
15554;DHT22;7878;44.632;10.942;2023-04-03T11:07:26;20.90;71.70
15554;DHT22;7878;44.632;10.942;2023-04-03T11:10:05;20.70;70.70
15554;DHT22;7878;44.632;10.942;2023-04-03T11:12:43;20.40;70.30
15554;DHT22;7878;44.632;10.942;2023-04-03T11:15:17;20.00;71.60
15554;DHT22;7878;44.632;10.942;2023-04-03T11:17:55;19.80;70.80
15554;DHT22;7878;44.632;10.942;2023-04-03T11:20:27;20.00;69.10
15554;DHT22;7878;44.632;10.942;2023-04-03T11:23:01;22.00;67.70
15554;DHT22;7878;44.632;10.942;2023-04-03T11:25:31;24.10;66.10
15554;DHT22;7878;44.632;10.942;2023-04-03T11:28:10;23.90;64.30
15554;DHT22;7878;44.632;10.942;2023-04-03T11:31:13;24.40;64.70
15554;DHT22;7878;44.632;10.942;2023-04-03T11:38:46;26.20;61.70
15554;DHT22;7878;44.632;10.942;2023-04-03T11:41:13;26.20;61.60
15554;DHT22;7878;44.632;10.942;2023-04-03T11:46:54;27.90;58.50
15554;DHT22;7878;44.632;10.942;2023-04-03T11:52:55;27.30;53.00
15554;DHT22;7878;44.632;10.942;2023-04-03T12:16:22;21.40;63.30
15554;DHT22;7878;44.632;10.942;2023-04-03T12:21:15;20.80;64.50
15554;DHT22;7878;44.632;10.942;2023-04-03T12:29:21;20.20;62.40
15554;DHT22;7878;44.632;10.942;2023-04-03T12:40:10;19.90;62.50
15554;DHT22;7878;44.632;10.942;2023-04-03T12:48:26;19.90;63.00
15554;DHT22;7878;44.632;10.942;2023-04-03T12:50:53;19.90;63.00
15554;DHT22;7878;44.632;10.942;2023-04-03T12:53:37;20.00;63.30
15554;DHT22;7878;44.632;10.942;2023-04-03T12:58:46;20.00;59.00
15554;DHT22;7878;44.632;10.942;2023-04-03T13:01:17;19.80;61.90
15554;DHT22;7878;44.632;10.942;2023-04-03T13:03:47;19.90;61.70
15554;DHT22;7878;44.632;10.942;2023-04-03T13:08:54;20.10;60.00
15554;DHT22;7878;44.632;10.942;2023-04-03T13:11:23;20.00;60.50
15554;DHT22;7878;44.632;10.942;2023-04-03T13:13:59;19.90;62.10
15554;DHT22;7878;44.632;10.942;2023-04-03T13:16:26;19.80;59.90
15554;DHT22;7878;44.632;10.942;2023-04-03T13:18:53;19.60;60.90
15554;DHT22;7878;44.632;10.942;2023-04-03T13:21:24;19.50;61.00
15554;DHT22;7878;44.632;10.942;2023-04-03T13:23:56;19.30;59.70
15554;DHT22;7878;44.632;10.942;2023-04-03T13:26:25;19.10;59.60
15554;DHT22;7878;44.632;10.942;2023-04-03T13:28:52;19.10;58.20
15554;DHT22;7878;44.632;10.942;2023-04-03T13:31:26;19.00;57.70
15554;DHT22;7878;44.632;10.942;2023-04-03T13:36:29;18.80;56.00
15554;DHT22;7878;44.632;10.942;2023-04-03T13:41:48;18.70;54.00
15554;DHT22;7878;44.632;10.942;2023-04-03T13:46:54;18.70;55.80
15554;DHT22;7878;44.632;10.942;2023-04-03T13:49:34;18.60;52.90
15554;DHT22;7878;44.632;10.942;2023-04-03T13:52:17;18.50;55.50
15554;DHT22;7878;44.632;10.942;2023-04-03T13:54:52;18.40;55.80
15554;DHT22;7878;44.632;10.942;2023-04-03T13:57:18;18.50;56.10
15554;DHT22;7878;44.632;10.942;2023-04-03T13:59:44;18.60;56.90
15554;DHT22;7878;44.632;10.942;2023-04-03T14:02:21;18.60;57.00
15554;DHT22;7878;44.632;10.942;2023-04-03T14:04:51;18.70;57.70
15554;DHT22;7878;44.632;10.942;2023-04-03T14:07:21;18.70;57.50
15554;DHT22;7878;44.632;10.942;2023-04-03T14:09:47;18.70;56.60
15554;DHT22;7878;44.632;10.942;2023-04-03T14:12:26;18.70;56.20
15554;DHT22;7878;44.632;10.942;2023-04-03T14:14:53;18.60;56.20
15554;DHT22;7878;44.632;10.942;2023-04-03T14:17:22;18.60;56.30
15554;DHT22;7878;44.632;10.942;2023-04-03T14:19:51;18.60;55.00
15554;DHT22;7878;44.632;10.942;2023-04-03T14:22:29;18.60;55.30
15554;DHT22;7878;44.632;10.942;2023-04-03T14:24:55;18.60;54.70
15554;DHT22;7878;44.632;10.942;2023-04-03T14:27:26;18.70;56.90
15554;DHT22;7878;44.632;10.942;2023-04-03T14:29:56;18.80;55.10
15554;DHT22;7878;44.632;10.942;2023-04-03T14:32:23;18.60;56.30
15554;DHT22;7878;44.632;10.942;2023-04-03T14:34:50;18.60;57.70
15554;DHT22;7878;44.632;10.942;2023-04-03T14:37:20;18.60;57.70
15554;DHT22;7878;44.632;10.942;2023-04-03T14:39:47;18.50;57.80
15554;DHT22;7878;44.632;10.942;2023-04-03T14:42:24;18.50;58.50
15554;DHT22;7878;44.632;10.942;2023-04-03T14:44:51;18.60;58.20
15554;DHT22;7878;44.632;10.942;2023-04-03T14:47:20;18.60;57.70
15554;DHT22;7878;44.632;10.942;2023-04-03T14:49:46;18.60;57.00
15554;DHT22;7878;44.632;10.942;2023-04-03T14:52:33;18.40;55.70
15554;DHT22;7878;44.632;10.942;2023-04-03T14:55:00;18.30;55.20
15554;DHT22;7878;44.632;10.942;2023-04-03T14:57:27;18.30;57.90
15554;DHT22;7878;44.632;10.942;2023-04-03T14:59:53;18.40;58.00
15554;DHT22;7878;44.632;10.942;2023-04-03T15:02:36;18.30;57.60
15554;DHT22;7878;44.632;10.942;2023-04-03T15:05:06;18.30;56.40
15554;DHT22;7878;44.632;10.942;2023-04-03T15:07:35;18.30;58.30
15554;DHT22;7878;44.632;10.942;2023-04-03T15:10:18;18.30;57.50
15554;DHT22;7878;44.632;10.942;2023-04-03T15:12:45;18.30;55.30
15554;DHT22;7878;44.632;10.942;2023-04-03T15:15:12;18.20;55.90
15554;DHT22;7878;44.632;10.942;2023-04-03T15:17:38;18.00;54.90
15554;DHT22;7878;44.632;10.942;2023-04-03T15:20:15;17.90;55.70
15554;DHT22;7878;44.632;10.942;2023-04-03T15:22:41;17.90;53.90
15554;DHT22;7878;44.632;10.942;2023-04-03T15:25:08;17.80;54.30
15554;DHT22;7878;44.632;10.942;2023-04-03T15:27:35;17.70;55.40
15554;DHT22;7878;44.632;10.942;2023-04-03T15:30:01;17.70;56.20
15554;DHT22;7878;44.632;10.942;2023-04-03T15:32:26;17.70;56.80
15554;DHT22;7878;44.632;10.942;2023-04-03T15:34:53;17.70;56.40
15554;DHT22;7878;44.632;10.942;2023-04-03T15:37:19;17.80;56.40
15554;DHT22;7878;44.632;10.942;2023-04-03T15:39:45;17.80;56.50
15554;DHT22;7878;44.632;10.942;2023-04-03T15:42:11;17.70;55.20
15554;DHT22;7878;44.632;10.942;2023-04-03T15:44:37;17.70;56.00
15554;DHT22;7878;44.632;10.942;2023-04-03T15:47:03;17.80;56.50
15554;DHT22;7878;44.632;10.942;2023-04-03T15:49:30;17.80;56.40
15554;DHT22;7878;44.632;10.942;2023-04-03T15:51:58;17.80;57.00
15554;DHT22;7878;44.632;10.942;2023-04-03T15:54:24;17.80;54.40
15554;DHT22;7878;44.632;10.942;2023-04-03T15:56:51;17.70;53.00
15554;DHT22;7878;44.632;10.942;2023-04-03T15:59:17;17.40;53.90
15554;DHT22;7878;44.632;10.942;2023-04-03T16:01:43;17.40;52.70
15554;DHT22;7878;44.632;10.942;2023-04-03T16:04:09;17.40;53.60
15554;DHT22;7878;44.632;10.942;2023-04-03T16:06:36;17.40;52.00
15554;DHT22;7878;44.632;10.942;2023-04-03T16:09:03;17.40;50.80
15554;DHT22;7878;44.632;10.942;2023-04-03T16:11:29;17.20;52.40
15554;DHT22;7878;44.632;10.942;2023-04-03T16:13:56;17.20;52.40
15554;DHT22;7878;44.632;10.942;2023-04-03T16:16:22;17.20;52.10
15554;DHT22;7878;44.632;10.942;2023-04-03T16:18:48;17.10;52.80
15554;DHT22;7878;44.632;10.942;2023-04-03T16:21:15;17.10;51.50
15554;DHT22;7878;44.632;10.942;2023-04-03T16:23:43;17.00;53.00
15554;DHT22;7878;44.632;10.942;2023-04-03T16:26:09;17.10;53.90
15554;DHT22;7878;44.632;10.942;2023-04-03T16:28:35;17.10;53.30
15554;DHT22;7878;44.632;10.942;2023-04-03T16:31:01;17.10;51.40
15554;DHT22;7878;44.632;10.942;2023-04-03T16:33:27;16.90;50.30
15554;DHT22;7878;44.632;10.942;2023-04-03T16:35:54;16.70;51.00
15554;DHT22;7878;44.632;10.942;2023-04-03T16:38:20;16.70;51.40
15554;DHT22;7878;44.632;10.942;2023-04-03T16:40:48;16.70;51.40
15554;DHT22;7878;44.632;10.942;2023-04-03T16:43:14;16.70;53.80
15554;DHT22;7878;44.632;10.942;2023-04-03T16:45:40;16.80;53.30
15554;DHT22;7878;44.632;10.942;2023-04-03T16:48:06;16.80;53.80
15554;DHT22;7878;44.632;10.942;2023-04-03T16:50:32;16.80;52.30
15554;DHT22;7878;44.632;10.942;2023-04-03T16:52:58;16.80;53.80
15554;DHT22;7878;44.632;10.942;2023-04-03T16:55:23;16.70;54.10
15554;DHT22;7878;44.632;10.942;2023-04-03T16:57:49;16.80;54.30
15554;DHT22;7878;44.632;10.942;2023-04-03T17:00:15;16.80;54.90
15554;DHT22;7878;44.632;10.942;2023-04-03T17:02:41;16.80;54.10
15554;DHT22;7878;44.632;10.942;2023-04-03T17:05:07;16.80;54.10
15554;DHT22;7878;44.632;10.942;2023-04-03T17:07:33;16.80;54.30
15554;DHT22;7878;44.632;10.942;2023-04-03T17:09:59;16.80;52.80
15554;DHT22;7878;44.632;10.942;2023-04-03T17:12:26;16.70;53.40
15554;DHT22;7878;44.632;10.942;2023-04-03T17:14:51;16.60;53.00
15554;DHT22;7878;44.632;10.942;2023-04-03T17:17:23;16.60;52.70
15554;DHT22;7878;44.632;10.942;2023-04-03T17:19:50;16.60;52.90
15554;DHT22;7878;44.632;10.942;2023-04-03T17:22:16;16.50;53.40
15554;DHT22;7878;44.632;10.942;2023-04-03T17:24:43;16.40;53.80
15554;DHT22;7878;44.632;10.942;2023-04-03T17:27:09;16.50;53.80
15554;DHT22;7878;44.632;10.942;2023-04-03T17:29:35;16.50;53.60
15554;DHT22;7878;44.632;10.942;2023-04-03T17:32:00;16.40;53.80